Azalea, Oregon
Current Conditions -  °F | °C
As of 4:56 AM on Thursday 30 Oct 2014 (Local Time) from KSXT Reporting Station
Overcast Overcast  
Wind Chill: 11°   Ceiling: 11000
Heat Index: 11°   Visibility: 10mi
Dew Point:   Wind: 8mph
Humidity: 83%   Direction: 170°S
Pressure: 29.98"   Gusts: NA
Location:  42.8°N, 123.26°W
Report Text: KSXT 301156Z AUTO 17007KT 10SM OVC110 11/08 A2998 RMK AO2 SLP135 60000 T01060078 10117 20100 57010
Loading
Personal Weather Stations






























Interactive Weather Map
Tropical Storm Tracking
New forecast layout! Learn more

10-Day Weather Forecast

Advertisements
Track Severe Weather on mobile